Ajax, Louisiana
Current Conditions -  °F | °C
As of 1:55 PM on Monday 24 Nov 2014 (Local Time) from KIER Reporting Station
Clear Clear  
Wind Chill: 63°   Ceiling: Unl
Heat Index: 63°   Visibility: 10mi
Dew Point: 34°   Wind: 9mph
Humidity: 34%   Direction: 320°NW
Pressure: 30"   Gusts: 16mph
Location:  31.7926°N, 93.4001°W
Report Text: KIER 241955Z AUTO 32008G14KT 10SM CLR 17/01 A3000 RMK AO2 T01720011
Loading
Personal Weather Stations






























Interactive Weather Map New forecast layout! Learn more

10-Day Weather Forecast

Advertisements
Track Severe Weather on mobile